Time;durP1;ratioP1;P1;durP2;ratioP2;P2;SDS_P1;SDS_P2;PMS_P1;PMS_P2;Temp;Humidity;BMP_temperature;BMP_pressure;BME280_temperature;BME280_humidity;BME280_pressure;Samples;Min_cycle;Max_cycle;Signal;HPM_P1;HPM_P2
2022/06/29 00:00:32;;;;;;;;;;;;;;;23.97;60.48;99684.91;4452768;32;20082;-83
2022/06/29 00:02:58;;;;;;;;;;;;;;;24.00;60.49;99672.16;4452037;32;30843;-83
2022/06/29 00:05:23;;;;;;;;;;;;;;;23.95;60.48;99668.25;4439936;32;20023;-83
2022/06/29 00:07:49;;;;;;;;;;;;;;;24.04;60.48;99672.72;4439836;32;20314;-83
2022/06/29 00:10:14;;;;;;;;;;;;;;;24.00;60.49;99669.50;4439791;32;19989;-83
2022/06/29 00:12:40;;;;;;;;;;;;;;;24.04;60.48;99673.56;4441952;32;19977;-83
2022/06/29 00:15:05;;;;;;;;;;;;;;;23.99;60.48;99665.16;4442236;32;20000;-83
2022/06/29 00:17:31;;;;;;;;;;;;;;;24.03;60.48;99666.56;4442245;32;19985;-84
2022/06/29 00:19:56;;;;;;;;;;;;;;;23.99;60.49;99667.81;4456408;32;20000;-83
2022/06/29 00:22:22;;;;;;;;;;;;;;;23.97;60.49;99667.13;4442249;32;20025;-83
2022/06/29 00:24:47;;;;;;;;;;;;;;;24.05;60.49;99663.78;4455640;32;29961;-83
2022/06/29 00:27:12;;;;;;;;;;;;;;;24.11;60.49;99669.38;4442243;32;20040;-83
2022/06/29 00:29:37;;;;;;;;;;;;;;;24.02;60.48;99662.22;4454747;32;20004;-83
2022/06/29 00:32:03;;;;;;;;;;;;;;;23.92;60.48;99657.87;4442243;32;20009;-83
2022/06/29 00:34:28;;;;;;;;;;;;;;;23.83;60.48;99651.53;4442274;32;19989;-83
2022/06/29 00:36:53;;;;;;;;;;;;;;;23.72;60.47;99651.66;4455716;32;21350;-82
2022/06/29 00:39:19;;;;;;;;;;;;;;;23.84;60.48;99640.78;4455478;32;24956;-83
2022/06/29 00:41:44;;;;;;;;;;;;;;;23.81;60.47;99634.91;4454973;32;20242;-83
2022/06/29 00:44:17;;;;;;;;;;;;;;;23.81;60.47;99637.56;4455001;32;20007;-83
2022/06/29 00:46:48;;;;;;;;;;;;;;;23.81;60.47;99632.25;4442230;32;19992;-83
2022/06/29 00:49:15;;;;;;;;;;;;;;;23.74;60.46;99636.44;4456056;32;19985;-83
2022/06/29 00:51:40;;;;;;;;;;;;;;;23.72;60.47;99635.72;4441853;32;19987;-83
2022/06/29 00:54:06;;;;;;;;;;;;;;;23.76;60.48;99635.31;4441900;32;19980;-83
2022/06/29 00:56:31;;;;;;;;;;;;;;;23.74;60.48;99634.59;4441671;32;19996;-83
2022/06/29 00:58:56;;;;;;;;;;;;;;;23.67;60.47;99635.28;4441560;32;20030;-83
2022/06/29 01:01:21;;;;;;;;;;;;;;;23.37;60.45;99630.78;4428123;32;25701;-83
2022/06/29 01:03:47;;;;;;;;;;;;;;;23.38;60.45;99635.97;4455898;32;20242;-84
2022/06/29 01:06:12;;;;;;;;;;;;;;;23.31;60.45;99626.84;4441497;32;19989;-83
2022/06/29 01:08:38;;;;;;;;;;;;;;;23.43;60.46;99639.09;4455794;32;20068;-84
2022/06/29 01:11:03;;;;;;;;;;;;;;;23.46;60.45;99640.63;4441178;32;23272;-84
2022/06/29 01:13:28;;;;;;;;;;;;;;;23.51;60.46;99633.94;4441767;32;20071;-85
2022/06/29 01:15:53;;;;;;;;;;;;;;;23.52;60.46;99630.31;4441178;32;19985;-84
2022/06/29 01:18:19;;;;;;;;;;;;;;;23.46;60.45;99630.84;4428541;32;20011;-84
2022/06/29 01:20:44;;;;;;;;;;;;;;;23.48;60.45;99644.84;4441240;32;20026;-83
2022/06/29 01:23:09;;;;;;;;;;;;;;;23.59;60.46;99641.25;4441095;32;19965;-83
2022/06/29 01:25:34;;;;;;;;;;;;;;;23.62;60.46;99641.00;4441422;32;19996;-84
2022/06/29 01:28:00;;;;;;;;;;;;;;;23.54;60.46;99632.81;4441487;32;20266;-84
2022/06/29 01:30:25;;;;;;;;;;;;;;;23.44;60.46;99635.47;4428242;32;20788;-83
2022/06/29 01:32:50;;;;;;;;;;;;;;;23.57;60.46;99637.91;4441130;32;20130;-83
2022/06/29 01:35:16;;;;;;;;;;;;;;;23.46;60.45;99638.81;4454228;32;20005;-84
2022/06/29 01:37:41;;;;;;;;;;;;;;;23.44;60.46;99624.84;4441405;32;19989;-83
2022/06/29 01:40:07;;;;;;;;;;;;;;;23.44;60.46;99629.31;4441188;32;19977;-83
2022/06/29 01:42:32;;;;;;;;;;;;;;;23.38;60.45;99622.69;4441406;32;19993;-83
2022/06/29 01:44:57;;;;;;;;;;;;;;;23.13;60.44;99613.34;4441511;32;20356;-83
2022/06/29 01:47:22;;;;;;;;;;;;;;;23.24;60.44;99615.94;4441355;32;20023;-84
2022/06/29 01:49:48;;;;;;;;;;;;;;;23.19;60.44;99612.84;4440439;32;30111;-82
2022/06/29 01:52:13;;;;;;;;;;;;;;;23.15;60.44;99608.75;4440854;32;26818;-84
2022/06/29 01:54:39;;;;;;;;;;;;;;;23.34;60.44;99609.81;4441496;32;20310;-83
2022/06/29 01:57:04;;;;;;;;;;;;;;;23.33;60.44;99614.28;4455551;32;19985;-84
2022/06/29 01:59:29;;;;;;;;;;;;;;;23.06;60.44;99611.38;4441386;32;20247;-84
2022/06/29 02:01:54;;;;;;;;;;;;;;;23.06;60.44;99609.56;4441297;32;20325;-84
2022/06/29 02:04:20;;;;;;;;;;;;;;;23.08;60.43;99606.75;4440791;32;23615;-83
2022/06/29 02:06:45;;;;;;;;;;;;;;;23.12;60.44;99605.53;4440873;32;19981;-83
2022/06/29 02:09:10;;;;;;;;;;;;;;;23.18;60.44;99607.63;4441184;32;19977;-81
2022/06/29 02:11:35;;;;;;;;;;;;;;;23.21;60.44;99613.56;4441076;32;20015;-83
2022/06/29 02:14:00;;;;;;;;;;;;;;;23.26;60.43;99603.38;4440632;32;26523;-84
2022/06/29 02:16:27;;;;;;;;;;;;;;;23.11;60.43;99601.19;4454923;32;21697;-84
2022/06/29 02:18:52;;;;;;;;;;;;;;;22.95;60.42;99602.53;4441301;32;19973;-84
2022/06/29 02:21:18;;;;;;;;;;;;;;;22.90;60.42;99601.22;4440526;32;26651;-84
2022/06/29 02:23:44;;;;;;;;;;;;;;;;;;4440865;32;20017;-84
2022/06/29 02:26:10;;;;;;;;;;;;;;;23.00;60.43;99601.28;4454239;32;20005;-84
2022/06/29 02:28:35;;;;;;;;;;;;;;;23.09;60.43;99592.50;4441007;32;19988;-84
2022/06/29 02:36:28;;;;;;;;;;;;;;;;;;4442687;32;20428;-84
2022/06/29 02:38:53;;;;;;;;;;;;;;;23.09;60.43;99601.31;4453694;32;20024;-84
2022/06/29 02:41:18;;;;;;;;;;;;;;;23.08;60.43;99604.09;4440914;32;19965;-85
2022/06/29 02:43:45;;;;;;;;;;;;;;;23.16;60.44;99593.66;4455223;32;20005;-84
2022/06/29 02:46:11;;;;;;;;;;;;;;;23.03;60.42;99593.88;4441049;32;19989;-85
2022/06/29 02:48:36;;;;;;;;;;;;;;;;;;4454648;32;21544;-85
2022/06/29 02:51:01;;;;;;;;;;;;;;;22.91;60.42;99602.88;4455265;32;19974;-84
2022/06/29 02:53:26;;;;;;;;;;;;;;;23.00;60.43;99601.28;4440120;32;31756;-84
2022/06/29 02:55:51;;;;;;;;;;;;;;;22.86;60.41;99591.81;4440658;32;20004;-85
2022/06/29 02:58:17;;;;;;;;;;;;;;;22.91;60.42;99594.94;4440212;32;25039;-84
2022/06/29 03:00:42;;;;;;;;;;;;;;;22.94;60.42;99594.66;4440046;32;24920;-83
2022/06/29 03:03:07;;;;;;;;;;;;;;;22.96;60.43;99590.94;4453531;32;19981;-84
2022/06/29 03:05:32;;;;;;;;;;;;;;;22.87;60.41;99599.66;4440921;32;19999;-84
2022/06/29 03:07:57;;;;;;;;;;;;;;;22.95;60.42;99599.88;4453333;32;26026;-84
2022/06/29 03:10:23;;;;;;;;;;;;;;;23.02;60.42;99602.81;4440023;32;30904;-84
2022/06/29 03:12:48;;;;;;;;;;;;;;;;;;4446533;32;27221;-85
2022/06/29 03:15:13;;;;;;;;;;;;;;;23.06;60.44;99601.59;4461978;32;20013;-84
2022/06/29 03:17:38;;;;;;;;;;;;;;;23.06;60.44;99598.09;4445555;32;20261;-84
2022/06/29 03:20:05;;;;;;;;;;;;;;;23.17;60.44;99598.81;4440369;32;20694;-85
2022/06/29 03:22:31;;;;;;;;;;;;;;;23.20;60.44;99603.91;4453088;32;19989;-82
2022/06/29 03:24:57;;;;;;;;;;;;;;;23.35;60.43;99598.22;4440016;32;20015;-83
2022/06/29 03:27:22;;;;;;;;;;;;;;;23.55;60.45;99600.81;4426703;32;19990;-83
2022/06/29 03:29:47;;;;;;;;;;;;;;;23.45;60.45;99599.94;4439415;32;27498;-82
2022/06/29 03:32:13;;;;;;;;;;;;;;;23.51;60.45;99596.75;4453988;32;19981;-83
2022/06/29 03:34:38;;;;;;;;;;;;;;;23.65;60.46;99600.00;4454225;32;19981;-83
2022/06/29 03:37:03;;;;;;;;;;;;;;;23.76;60.47;99599.91;4439376;32;33417;-83
2022/06/29 03:39:28;;;;;;;;;;;;;;;23.77;60.47;99601.59;4452303;32;31069;-83
2022/06/29 03:41:54;;;;;;;;;;;;;;;23.84;60.46;99597.41;4439698;32;25470;-83
2022/06/29 03:44:19;;;;;;;;;;;;;;;23.79;60.47;99604.97;4454377;32;19992;-84
2022/06/29 03:46:44;;;;;;;;;;;;;;;23.88;60.47;99606.78;4453548;32;25873;-84
2022/06/29 03:49:09;;;;;;;;;;;;;;;24.09;60.48;99609.34;4442172;32;20007;-84
2022/06/29 03:51:34;;;;;;;;;;;;;;;24.10;60.48;99613.66;4441839;32;20022;-85
2022/06/29 03:54:00;;;;;;;;;;;;;;;24.41;60.49;99609.97;4455087;32;20005;-83
2022/06/29 03:56:25;;;;;;;;;;;;;;;24.37;60.50;99608.56;4454118;32;30942;-84
2022/06/29 03:58:50;;;;;;;;;;;;;;;24.37;60.50;99600.59;4442108;32;20258;-83
2022/06/29 04:01:15;;;;;;;;;;;;;;;24.52;60.51;99587.66;4455360;32;27081;-84
2022/06/29 04:03:41;;;;;;;;;;;;;;;24.69;60.52;99581.63;4455027;32;20026;-84
2022/06/29 04:06:06;;;;;;;;;;;;;;;24.83;60.51;99590.13;4454896;32;19981;-84
2022/06/29 04:08:31;;;;;;;;;;;;;;;24.81;60.51;99584.94;4442157;32;19981;-84
2022/06/29 04:10:57;;;;;;;;;;;;;;;24.90;60.52;99591.25;4456207;32;19973;-84
2022/06/29 04:13:25;;;;;;;;;;;;;;;25.00;60.53;99587.59;4441508;32;25216;-83
2022/06/29 04:15:50;;;;;;;;;;;;;;;25.17;60.54;99588.66;4442345;32;19981;-84
2022/06/29 04:18:16;;;;;;;;;;;;;;;25.31;60.55;99590.84;4454707;32;20392;-84
2022/06/29 04:23:25;;;;;;;;;;;;;;;25.52;60.55;99584.44;4444271;32;20374;-84
2022/06/29 04:25:50;;;;;;;;;;;;;;;25.53;60.55;99586.12;4442010;32;19974;-84
2022/06/29 04:28:16;;;;;;;;;;;;;;;25.80;60.57;99586.16;4454143;32;20344;-84
2022/06/29 04:30:41;;;;;;;;;;;;;;;25.86;60.58;99590.88;4455778;32;20231;-84
2022/06/29 04:33:07;;;;;;;;;;;;;;;25.99;60.58;99588.66;4441178;32;24553;-84
2022/06/29 04:35:33;;;;;;;;;;;;;;;26.10;60.58;99592.94;4454719;32;20325;-84
2022/06/29 04:37:58;;;;;;;;;;;;;;;26.33;60.59;99584.50;4441782;32;19996;-84
2022/06/29 04:40:23;;;;;;;;;;;;;;;26.38;60.59;99585.72;4441186;32;23476;-84
2022/06/29 04:42:48;;;;;;;;;;;;;;;26.48;60.61;99591.81;4454692;32;20027;-84
2022/06/29 04:47:58;;;;;;;;;;;;;;;26.79;60.61;99588.72;4443936;32;20600;-84
2022/06/29 04:50:23;;;;;;;;;;;;;;;26.87;60.62;99588.75;4441816;32;20589;-84
2022/06/29 04:52:49;;;;;;;;;;;;;;;26.97;60.63;99586.81;4453874;32;33875;-84
2022/06/29 04:55:14;;;;;;;;;;;;;;;27.18;60.63;99587.28;4440987;32;30666;-84
2022/06/29 04:57:39;;;;;;;;;;;;;;;27.20;60.65;99595.97;4454350;32;28725;-84
2022/06/29 05:00:05;;;;;;;;;;;;;;;27.28;60.64;99591.69;4441714;32;20000;-83
2022/06/29 05:02:30;;;;;;;;;;;;;;;27.38;60.65;99597.75;4441730;32;19990;-83
2022/06/29 05:04:55;;;;;;;;;;;;;;;27.43;60.65;99588.25;4453858;32;28861;-84
2022/06/29 05:07:20;;;;;;;;;;;;;;;27.55;60.65;99588.81;4441528;32;20317;-84
2022/06/29 05:09:46;;;;;;;;;;;;;;;27.82;60.67;99588.59;4455313;32;19989;-83
2022/06/29 05:12:11;;;;;;;;;;;;;;;27.91;60.67;99581.41;4428858;32;19985;-83
2022/06/29 05:14:36;;;;;;;;;;;;;;;27.92;60.68;99584.91;4441625;32;19977;-84
2022/06/29 05:17:01;;;;;;;;;;;;;;;28.11;60.68;99593.47;4455242;32;26087;-83
2022/06/29 05:19:27;;;;;;;;;;;;;;;28.24;60.70;99586.81;4455615;32;19985;-84
2022/06/29 05:21:52;;;;;;;;;;;;;;;28.28;60.69;99590.88;4441016;32;24834;-84
2022/06/29 05:24:17;;;;;;;;;;;;;;;28.42;60.70;99596.41;4440894;32;27298;-83
2022/06/29 05:26:42;;;;;;;;;;;;;;;28.53;60.70;99591.69;4440728;32;27317;-84
2022/06/29 05:29:07;;;;;;;;;;;;;;;28.59;60.71;99591.03;4441480;32;20391;-84
2022/06/29 05:31:33;;;;;;;;;;;;;;;28.70;60.72;99591.53;4454617;32;20007;-83
2022/06/29 05:33:58;;;;;;;;;;;;;;;28.80;60.72;99596.69;4454200;32;19978;-83
2022/06/29 05:36:23;;;;;;;;;;;;;;;28.81;60.73;99594.84;4441464;32;20401;-83
2022/06/29 05:38:51;;;;;;;;;;;;;;;28.86;60.73;99593.38;4441291;32;20269;-85
2022/06/29 05:41:16;;;;;;;;;;;;;;;28.89;60.73;99578.81;4441436;32;20057;-85
2022/06/29 05:43:43;;;;;;;;;;;;;;;28.98;60.73;99580.47;4441549;32;20024;-86
2022/06/29 05:46:09;;;;;;;;;;;;;;;29.12;60.74;99586.97;4441410;32;20308;-86
2022/06/29 05:48:34;;;;;;;;;;;;;;;29.12;60.74;99573.56;4454516;32;20001;-86
2022/06/29 05:50:59;;;;;;;;;;;;;;;29.16;60.74;99569.53;4441623;32;19989;-86
2022/06/29 05:53:25;;;;;;;;;;;;;;;29.33;60.76;99576.47;4441331;32;19961;-85
2022/06/29 05:55:50;;;;;;;;;;;;;;;29.36;60.75;99573.47;4441393;32;19996;-85
2022/06/29 05:58:18;;;;;;;;;;;;;;;29.47;60.75;99566.91;4441321;32;20016;-85
2022/06/29 06:00:43;;;;;;;;;;;;;;;29.52;60.76;99573.41;4454368;32;20027;-85
2022/06/29 06:03:09;;;;;;;;;;;;;;;29.63;60.76;99566.84;4441475;32;19973;-85
2022/06/29 06:05:34;;;;;;;;;;;;;;;29.56;60.76;99561.31;4441458;32;20003;-85
2022/06/29 06:07:59;;;;;;;;;;;;;;;29.73;60.77;99572.81;4428082;32;24709;-86
2022/06/29 06:10:25;;;;;;;;;;;;;;;29.70;60.77;99564.28;4441280;32;20036;-85
2022/06/29 06:12:50;;;;;;;;;;;;;;;29.94;60.78;99562.28;4441722;32;19992;-85
2022/06/29 06:15:15;;;;;;;;;;;;;;;29.89;60.79;99561.16;4441350;32;19983;-86
2022/06/29 06:17:41;;;;;;;;;;;;;;;29.99;60.79;99559.06;4441218;32;20009;-86
2022/06/29 06:20:06;;;;;;;;;;;;;;;30.03;60.79;99563.09;4455611;32;20029;-85
2022/06/29 06:22:31;;;;;;;;;;;;;;;30.15;60.79;99561.66;4441495;32;20014;-86
2022/06/29 06:24:57;;;;;;;;;;;;;;;30.09;60.79;99564.25;4428477;32;19999;-85
2022/06/29 06:27:22;;;;;;;;;;;;;;;30.11;60.79;99568.41;4428553;32;20031;-87
2022/06/29 06:29:47;;;;;;;;;;;;;;;30.19;60.80;99557.59;4454299;32;20015;-86
2022/06/29 06:32:12;;;;;;;;;;;;;;;30.27;60.80;99572.81;4441219;32;20015;-86
2022/06/29 06:34:38;;;;;;;;;;;;;;;30.51;60.81;99563.72;4441009;32;19985;-86
2022/06/29 06:37:03;;;;;;;;;;;;;;;30.70;60.83;99565.09;4440838;32;27890;-87
2022/06/29 06:39:29;;;;;;;;;;;;;;;30.88;60.83;99564.75;4441509;32;20003;-86
2022/06/29 06:41:54;;;;;;;;;;;;;;;31.04;60.84;99564.56;4441821;32;19977;-88
2022/06/29 06:44:19;;;;;;;;;;;;;;;31.26;60.85;99569.06;4441949;32;20332;-88
2022/06/29 06:46:48;;;;;;;;;;;;;;;31.34;60.86;99558.19;4446215;32;20012;-87
2022/06/29 06:49:20;;;;;;;;;;;;;;;31.64;60.88;99563.50;4450450;32;20042;-88
2022/06/29 06:51:45;;;;;;;;;;;;;;;31.76;60.88;99545.88;4444399;32;20048;-88
2022/06/29 06:54:10;;;;;;;;;;;;;;;32.08;60.89;99551.78;4455998;32;19980;-89
2022/06/29 06:56:36;;;;;;;;;;;;;;;32.26;60.90;99547.66;4441596;32;20004;-89
2022/06/29 06:59:01;;;;;;;;;;;;;;;32.37;60.91;99532.81;4441800;32;19989;-90
2022/06/29 07:01:26;;;;;;;;;;;;;;;32.38;60.91;99539.88;4442030;32;20018;-89
2022/06/29 07:03:51;;;;;;;;;;;;;;;32.49;60.91;99539.34;4441952;32;19981;-89
2022/06/29 07:06:17;;;;;;;;;;;;;;;32.57;60.92;99535.66;4441747;32;20022;-89
2022/06/29 07:08:42;;;;;;;;;;;;;;;32.58;60.91;99537.34;4441372;32;19993;-88
2022/06/29 07:11:07;;;;;;;;;;;;;;;32.59;60.92;99534.44;4441164;32;19985;-88
2022/06/29 07:13:33;;;;;;;;;;;;;;;32.62;60.92;99533.22;4440769;32;19977;-88
2022/06/29 07:15:58;;;;;;;;;;;;;;;32.78;60.93;99521.31;4440600;32;20015;-87
2022/06/29 07:18:23;;;;;;;;;;;;;;;32.92;60.93;99523.09;4440641;32;20031;-87
2022/06/29 07:20:49;;;;;;;;;;;;;;;33.02;60.94;99520.84;4440948;32;20018;-87
2022/06/29 07:23:14;;;;;;;;;;;;;;;33.08;60.95;99522.75;4442081;32;20113;-87
2022/06/29 07:25:39;;;;;;;;;;;;;;;33.24;60.95;99525.09;4442433;32;19989;-87
2022/06/29 07:28:05;;;;;;;;;;;;;;;33.23;60.94;99526.16;4456347;32;19989;-87
2022/06/29 07:30:30;;;;;;;;;;;;;;;33.44;60.96;99519.84;4456505;32;20322;-87
2022/06/29 07:32:56;;;;;;;;;;;;;;;33.59;60.97;99522.34;4456590;32;19985;-87
2022/06/29 07:35:21;;;;;;;;;;;;;;;33.71;60.97;99520.75;4442419;32;19981;-86
2022/06/29 07:37:46;;;;;;;;;;;;;;;33.70;60.97;99524.47;4441664;32;25029;-87
2022/06/29 07:40:11;;;;;;;;;;;;;;;33.81;60.99;99518.47;4456452;32;20025;-86
2022/06/29 07:42:38;;;;;;;;;;;;;;;33.88;60.98;99520.41;4442202;32;19981;-86
2022/06/29 07:45:03;;;;;;;;;;;;;;;33.99;60.99;99517.06;4442321;32;20000;-87
2022/06/29 07:47:29;;;;;;;;;;;;;;;34.10;60.99;99508.38;4442183;32;20035;-87
2022/06/29 07:49:54;;;;;;;;;;;;;;;34.13;61.00;99506.09;4442385;32;20015;-87
2022/06/29 07:52:20;;;;;;;;;;;;;;;34.12;60.99;99514.41;4442118;32;20026;-87
2022/06/29 07:54:45;;;;;;;;;;;;;;;34.15;61.00;99513.97;4429252;32;20322;-86
2022/06/29 07:57:10;;;;;;;;;;;;;;;34.29;61.01;99510.22;4442243;32;20262;-87
2022/06/29 07:59:35;;;;;;;;;;;;;;;34.40;61.01;99520.44;4441459;32;27653;-87
2022/06/29 08:02:00;;;;;;;;;;;;;;;34.61;61.01;99523.97;4441633;32;28919;-86
2022/06/29 08:04:26;;;;;;;;;;;;;;;34.54;61.02;99513.16;4442185;32;20027;-87
2022/06/29 08:06:51;;;;;;;;;;;;;;;34.78;61.03;99506.25;4441632;32;22697;-87
2022/06/29 08:09:16;;;;;;;;;;;;;;;34.73;61.03;99506.06;4441922;32;20227;-87
2022/06/29 08:11:41;;;;;;;;;;;;;;;34.78;61.03;99504.41;4456306;32;22639;-87
2022/06/29 08:14:06;;;;;;;;;;;;;;;34.82;61.03;99499.41;4445123;32;20089;-87
2022/06/29 08:16:32;;;;;;;;;;;;;;;34.96;61.04;99501.03;4441502;32;31442;-87
2022/06/29 08:18:57;;;;;;;;;;;;;;;34.82;61.03;99504.81;4441290;32;25871;-87
2022/06/29 08:21:22;;;;;;;;;;;;;;;34.82;61.03;99512.91;4441678;32;19993;-87
2022/06/29 08:23:48;;;;;;;;;;;;;;;34.69;61.03;99510.22;4441546;32;22555;-87
2022/06/29 08:26:13;;;;;;;;;;;;;;;34.79;61.03;99510.63;4442248;32;19982;-87
2022/06/29 08:28:38;;;;;;;;;;;;;;;35.02;61.05;99508.31;4441878;32;19973;-87
2022/06/29 08:31:04;;;;;;;;;;;;;;;35.19;61.05;99511.34;4441842;32;20070;-86
2022/06/29 08:33:29;;;;;;;;;;;;;;;35.36;61.05;99507.16;4440921;32;19996;-87
2022/06/29 08:35:54;;;;;;;;;;;;;;;35.38;61.06;99504.25;4442014;32;20265;-86
2022/06/29 08:38:19;;;;;;;;;;;;;;;35.61;61.07;99496.41;4455959;32;20030;-87
2022/06/29 08:40:46;;;;;;;;;;;;;;;35.73;61.08;99496.56;4455489;32;19981;-87
2022/06/29 08:43:11;;;;;;;;;;;;;;;35.73;61.07;99490.28;4441788;32;19993;-87
2022/06/29 08:45:39;;;;;;;;;;;;;;;35.91;61.09;99482.28;4441895;32;20008;-87
2022/06/29 08:48:04;;;;;;;;;;;;;;;36.05;61.09;99489.25;4441969;32;19965;-87
2022/06/29 08:50:29;;;;;;;;;;;;;;;36.29;61.11;99483.00;4441890;32;20008;-87
2022/06/29 08:52:54;;;;;;;;;;;;;;;36.32;61.11;99486.38;4441223;32;27425;-87
2022/06/29 08:55:20;;;;;;;;;;;;;;;36.42;61.11;99489.38;4441470;32;19989;-87
2022/06/29 08:57:45;;;;;;;;;;;;;;;36.35;61.11;99480.50;4441268;32;22683;-87
2022/06/29 09:00:10;;;;;;;;;;;;;;;36.45;61.13;99483.53;4441744;32;19985;-87
2022/06/29 09:02:36;;;;;;;;;;;;;;;36.61;61.12;99484.81;4441653;32;20259;-87
2022/06/29 09:05:01;;;;;;;;;;;;;;;36.52;61.11;99487.00;4441770;32;19993;-86
2022/06/29 09:07:26;;;;;;;;;;;;;;;36.77;61.12;99474.22;4440978;32;26502;-85
2022/06/29 09:10:02;;;;;;;;;;;;;;;36.94;61.13;99476.38;4441195;32;24681;-87
2022/06/29 09:12:28;;;;;;;;;;;;;;;36.93;61.13;99474.72;4441765;32;20000;-87
2022/06/29 09:14:53;;;;;;;;;;;;;;;37.30;61.16;99470.09;4441735;32;20016;-86
2022/06/29 09:17:18;;;;;;;;;;;;;;;37.47;61.16;99471.94;4441456;32;19985;-86
2022/06/29 09:19:44;;;;;;;;;;;;;;;37.51;61.17;99480.44;4441555;32;19995;-87
2022/06/29 09:22:09;;;;;;;;;;;;;;;37.58;61.17;99467.59;4441773;32;20003;-87
2022/06/29 09:24:34;;;;;;;;;;;;;;;37.67;61.17;99459.97;4441669;32;19985;-87
2022/06/29 09:27:03;;;;;;;;;;;;;;;37.83;61.18;99464.75;4440992;32;24324;-87
2022/06/29 09:29:29;;;;;;;;;;;;;;;38.03;61.19;99457.09;4441483;32;19981;-87
2022/06/29 09:32:01;;;;;;;;;;;;;;;38.19;61.20;99465.66;4441380;32;20004;-87
2022/06/29 09:34:27;;;;;;;;;;;;;;;38.19;61.20;99463.78;4454789;32;20053;-87
2022/06/29 09:36:55;;;;;;;;;;;;;;;38.44;61.21;99466.25;4442294;32;20028;-87
2022/06/29 09:39:33;;;;;;;;;;;;;;;38.56;61.21;99464.34;4441394;32;19980;-87
2022/06/29 09:41:59;;;;;;;;;;;;;;;38.73;61.22;99459.03;4441410;32;20016;-87
2022/06/29 09:44:24;;;;;;;;;;;;;;;38.90;61.24;99454.50;4440996;32;20045;-87
2022/06/29 09:46:49;;;;;;;;;;;;;;;38.94;61.23;99454.84;4441502;32;19988;-87
2022/06/29 09:49:15;;;;;;;;;;;;;;;38.86;61.23;99452.50;4441477;32;20025;-87
2022/06/29 09:51:41;;;;;;;;;;;;;;;38.94;61.23;99450.22;4441362;32;19993;-87
2022/06/29 09:54:07;;;;;;;;;;;;;;;39.16;61.25;99450.44;4441382;32;20001;-87
2022/06/29 09:56:32;;;;;;;;;;;;;;;39.30;61.24;99448.25;4441521;32;19973;-87
2022/06/29 09:58:58;;;;;;;;;;;;;;;39.43;61.26;99447.94;4441423;32;19987;-86
2022/06/29 10:04:07;;;;;;;;;;;;;;;39.50;61.26;99447.78;4443697;32;19995;-87
2022/06/29 10:06:33;;;;;;;;;;;;;;;39.45;61.25;99434.06;4441450;32;19977;-88
2022/06/29 10:08:58;;;;;;;;;;;;;;;39.68;61.26;99427.69;4441402;32;20314;-87
2022/06/29 10:14:14;;;;;;;;;;;;;;;39.37;61.26;99437.22;4455588;32;20007;-87
2022/06/29 10:16:41;;;;;;;;;;;;;;;39.28;61.25;99434.06;4441450;32;19973;-87
2022/06/29 10:19:13;;;;;;;;;;;;;;;39.27;61.25;99422.31;4441803;32;19981;-87
2022/06/29 10:21:38;;;;;;;;;;;;;;;39.26;61.25;99412.50;4458762;32;19953;-87
2022/06/29 10:24:03;;;;;;;;;;;;;;;39.22;61.24;99415.94;4448384;32;19989;-86
2022/06/29 10:26:34;;;;;;;;;;;;;;;39.19;61.24;99411.00;4448587;32;19993;-87
2022/06/29 10:29:05;;;;;;;;;;;;;;;39.13;61.24;99411.97;4458131;32;20470;-87
2022/06/29 10:31:49;;;;;;;;;;;;;;;38.68;61.22;99402.62;4455553;32;20043;-88
2022/06/29 10:34:26;;;;;;;;;;;;;;;38.86;61.23;99414.41;4454400;32;20001;-87
2022/06/29 10:37:11;;;;;;;;;;;;;;;39.09;61.24;99408.09;4454009;32;19969;-87
2022/06/29 10:39:43;;;;;;;;;;;;;;;39.55;61.26;99401.63;4441017;32;19981;-87
2022/06/29 10:45:13;;;;;;;;;;;;;;;39.80;61.28;99393.03;4455262;32;20060;-87
2022/06/29 10:47:38;;;;;;;;;;;;;;;39.98;61.28;99384.59;4441014;32;19991;-87
2022/06/29 10:50:16;;;;;;;;;;;;;;;40.03;61.28;99381.97;4440460;32;20001;-87
2022/06/29 10:52:42;;;;;;;;;;;;;;;40.23;61.29;99373.28;4455260;32;19985;-86
2022/06/29 10:55:08;;;;;;;;;;;;;;;40.38;61.31;99381.69;4440516;32;19981;-87
2022/06/29 10:57:33;;;;;;;;;;;;;;;40.37;61.30;99376.44;4440685;32;19977;-87
2022/06/29 10:59:58;;;;;;;;;;;;;;;40.35;61.29;99364.97;4441793;32;19981;-87
2022/06/29 11:02:24;;;;;;;;;;;;;;;40.49;61.31;99371.75;4440792;32;20289;-87
2022/06/29 11:04:49;;;;;;;;;;;;;;;40.54;61.30;99366.34;4440164;32;27101;-87
2022/06/29 11:12:49;;;;;;;;;;;;;;;40.74;61.32;99361.13;4442976;32;20003;-87
2022/06/29 11:18:13;;;;;;;;;;;;;;;40.60;61.32;99361.78;4442728;32;20000;-87
2022/06/29 11:20:45;;;;;;;;;;;;;;;40.63;61.32;99353.91;4440778;32;20334;-87
2022/06/29 11:23:14;;;;;;;;;;;;;;;40.77;61.33;99338.78;4440502;32;20040;-87
2022/06/29 11:25:40;;;;;;;;;;;;;;;40.87;61.33;99345.47;4440744;32;19989;-87
2022/06/29 11:28:06;;;;;;;;;;;;;;;41.07;61.33;99338.31;4440357;32;19977;-87
2022/06/29 11:30:31;;;;;;;;;;;;;;;40.94;61.32;99327.00;4440573;32;20042;-87
2022/06/29 11:32:56;;;;;;;;;;;;;;;41.09;61.34;99333.41;4427528;32;20267;-87
2022/06/29 11:35:24;;;;;;;;;;;;;;;40.98;61.34;99325.41;4440427;32;20005;-87
2022/06/29 11:37:53;;;;;;;;;;;;;;;41.08;61.33;99329.03;4440406;32;20040;-87
2022/06/29 11:40:34;;;;;;;;;;;;;;;40.95;61.33;99318.53;4427336;32;20335;-87
2022/06/29 11:43:10;;;;;;;;;;;;;;;40.89;61.33;99319.56;4453194;32;19985;-86
2022/06/29 11:45:44;;;;;;;;;;;;;;;40.64;61.32;99317.34;4440419;32;20305;-87
2022/06/29 11:48:19;;;;;;;;;;;;;;;40.62;61.32;99314.03;4440451;32;20344;-87
2022/06/29 11:50:54;;;;;;;;;;;;;;;40.63;61.32;99309.41;4440204;32;19993;-87
2022/06/29 11:53:39;;;;;;;;;;;;;;;40.37;61.30;99306.34;4440085;32;19994;-87
2022/06/29 11:56:09;;;;;;;;;;;;;;;40.35;61.30;99311.25;4440248;32;20129;-87
2022/06/29 11:58:34;;;;;;;;;;;;;;;40.39;61.31;99306.97;4440194;32;20357;-87
2022/06/29 12:01:00;;;;;;;;;;;;;;;40.58;61.31;99309.38;4440048;32;19989;-87
2022/06/29 12:03:25;;;;;;;;;;;;;;;40.65;61.32;99301.78;4439582;32;21021;-87
2022/06/29 12:05:54;;;;;;;;;;;;;;;40.78;61.33;99293.22;4439943;32;20286;-87
2022/06/29 12:08:19;;;;;;;;;;;;;;;40.84;61.32;99292.22;4441594;32;19983;-87
2022/06/29 12:10:45;;;;;;;;;;;;;;;41.04;61.34;99286.13;4455880;32;21502;-87
2022/06/29 12:13:10;;;;;;;;;;;;;;;41.07;61.33;99286.44;4442181;32;20003;-87
2022/06/29 12:15:37;;;;;;;;;;;;;;;40.86;61.32;99278.31;4442077;32;20028;-87
2022/06/29 12:18:02;;;;;;;;;;;;;;;40.80;61.32;99271.94;4442219;32;19985;-87
2022/06/29 12:20:27;;;;;;;;;;;;;;;40.85;61.32;99274.75;4442171;32;19977;-87
2022/06/29 12:22:53;;;;;;;;;;;;;;;40.90;61.33;99276.69;4442623;32;20004;-88
2022/06/29 12:25:22;;;;;;;;;;;;;;;40.83;61.33;99246.06;4442951;32;20346;-87
2022/06/29 12:27:47;;;;;;;;;;;;;;;40.62;61.32;99266.84;4442347;32;19974;-87
2022/06/29 12:30:12;;;;;;;;;;;;;;;40.78;61.33;99261.28;4441834;32;19985;-88
2022/06/29 12:32:38;;;;;;;;;;;;;;;40.83;61.32;99259.72;4442089;32;19993;-87
2022/06/29 12:35:03;;;;;;;;;;;;;;;40.98;61.33;99255.22;4442149;32;20329;-87
2022/06/29 12:37:28;;;;;;;;;;;;;;;41.11;61.35;99251.22;4441960;32;20014;-87
2022/06/29 12:39:53;;;;;;;;;;;;;;;40.86;61.33;99260.03;4441427;32;22362;-87
2022/06/29 12:42:19;;;;;;;;;;;;;;;40.61;61.31;99255.09;4441808;32;19985;-87
2022/06/29 12:44:44;;;;;;;;;;;;;;;40.79;61.33;99243.00;4441935;32;20246;-87
2022/06/29 12:47:09;;;;;;;;;;;;;;;41.01;61.33;99243.78;4441896;32;20321;-87
2022/06/29 12:49:35;;;;;;;;;;;;;;;41.13;61.34;99246.34;4441910;32;20001;-87
2022/06/29 12:52:00;;;;;;;;;;;;;;;41.09;61.34;99248.75;4441783;32;20027;-87
2022/06/29 12:54:25;;;;;;;;;;;;;;;40.98;61.33;99241.59;4441341;32;21151;-87
2022/06/29 12:56:50;;;;;;;;;;;;;;;41.10;61.35;99250.41;4441763;32;20332;-87
2022/06/29 12:59:16;;;;;;;;;;;;;;;41.27;61.34;99246.75;4441883;32;20005;-88
2022/06/29 13:01:42;;;;;;;;;;;;;;;41.30;61.35;99246.22;4429130;32;19993;-87
2022/06/29 13:04:07;;;;;;;;;;;;;;;41.20;61.35;99248.88;4441725;32;19995;-87
2022/06/29 13:06:32;;;;;;;;;;;;;;;41.16;61.34;99251.25;4441683;32;20337;-88
2022/06/29 13:08:57;;;;;;;;;;;;;;;41.07;61.33;99244.66;4440764;32;34463;-87